createdAt,value
2019-03-09T00:01:02.891Z,15.68
2019-03-09T00:04:09.954Z,15.68
2019-03-09T00:07:15.747Z,15.57
2019-03-09T00:10:21.930Z,15.60
2019-03-09T00:13:27.856Z,15.59
2019-03-09T00:16:33.629Z,15.51
2019-03-09T00:19:39.408Z,15.58
2019-03-09T00:22:47.237Z,15.61
2019-03-09T00:26:27.197Z,15.44
2019-03-09T00:29:49.361Z,15.46
2019-03-09T00:32:55.088Z,15.05
2019-03-09T00:36:00.828Z,15.43
2019-03-09T00:39:08.035Z,15.44
2019-03-09T00:42:14.017Z,15.40
2019-03-09T00:45:19.873Z,15.20
2019-03-09T00:48:25.661Z,14.82
2019-03-09T00:51:31.543Z,15.00
2019-03-09T00:54:37.419Z,15.11
2019-03-09T00:57:43.331Z,15.00
2019-03-09T01:00:49.078Z,14.93
2019-03-09T01:03:54.810Z,14.93
2019-03-09T01:07:00.663Z,14.99
2019-03-09T01:10:07.855Z,14.71
2019-03-09T01:13:14.068Z,14.64
2019-03-09T01:16:20.696Z,14.83
2019-03-09T01:19:26.548Z,14.88
2019-03-09T01:22:32.290Z,14.99
2019-03-09T01:25:38.228Z,15.05
2019-03-09T01:28:43.955Z,14.97
2019-03-09T01:31:49.833Z,14.85
2019-03-09T01:34:55.533Z,14.51
2019-03-09T01:38:01.387Z,14.44
2019-03-09T01:41:07.266Z,14.64
2019-03-09T01:44:13.021Z,14.73
2019-03-09T01:47:18.892Z,14.47
2019-03-09T01:50:24.786Z,14.44
2019-03-09T01:53:36.809Z,14.52
2019-03-09T01:56:38.032Z,14.74
2019-03-09T01:59:43.895Z,14.57
2019-03-09T02:02:50.732Z,14.79
2019-03-09T02:05:56.481Z,14.79
2019-03-09T02:09:02.213Z,14.77
2019-03-09T02:12:09.723Z,14.44
2019-03-09T02:15:15.990Z,14.40
2019-03-09T02:18:21.781Z,14.53
2019-03-09T02:21:28.788Z,14.75
2019-03-09T02:24:34.555Z,14.62
2019-03-09T02:27:40.368Z,14.68
2019-03-09T02:30:46.169Z,14.80
2019-03-09T02:33:52.921Z,14.78
2019-03-09T02:36:58.693Z,14.70
2019-03-09T02:40:07.723Z,14.80
2019-03-09T02:43:13.470Z,14.85
2019-03-09T02:46:19.206Z,14.82
2019-03-09T02:49:24.970Z,14.80
2019-03-09T02:52:30.690Z,14.82
2019-03-09T02:55:36.477Z,14.66
2019-03-09T02:58:42.232Z,14.74
2019-03-09T03:01:53.768Z,14.57
2019-03-09T03:04:59.621Z,14.77
2019-03-09T03:08:05.494Z,14.68
2019-03-09T03:11:11.322Z,14.64
2019-03-09T03:14:17.163Z,14.57
2019-03-09T03:17:22.898Z,14.69
2019-03-09T03:20:28.712Z,14.13
2019-03-09T03:23:34.447Z,14.36
2019-03-09T03:26:41.303Z,14.10
2019-03-09T03:29:47.130Z,14.09
2019-03-09T03:32:56.526Z,14.04
2019-03-09T03:36:02.307Z,14.09
2019-03-09T03:39:08.945Z,14.24
2019-03-09T03:42:14.892Z,13.94
2019-03-09T03:45:20.731Z,13.88
2019-03-09T03:48:26.493Z,13.82
2019-03-09T03:51:32.268Z,13.23
2019-03-09T03:54:38.037Z,13.14
2019-03-09T03:57:43.760Z,13.35
2019-03-09T04:00:49.782Z,12.77
2019-03-09T04:03:55.715Z,13.21
2019-03-09T04:07:01.733Z,13.31
2019-03-09T04:10:08.116Z,13.50
2019-03-09T04:13:13.868Z,13.50
2019-03-09T04:16:19.721Z,13.61
2019-03-09T04:19:26.855Z,13.38
2019-03-09T04:22:32.631Z,13.47
2019-03-09T04:25:38.395Z,13.33
2019-03-09T04:28:44.194Z,13.14
2019-03-09T04:31:50.122Z,13.22
2019-03-09T04:34:56.157Z,13.28
2019-03-09T04:38:01.980Z,13.35
2019-03-09T04:41:07.728Z,13.51
2019-03-09T04:44:13.520Z,13.41
2019-03-09T04:47:19.262Z,13.48
2019-03-09T04:50:24.997Z,12.87
2019-03-09T04:53:30.765Z,13.05
2019-03-09T04:56:36.522Z,13.35
2019-03-09T04:59:42.325Z,13.40
2019-03-09T05:02:48.087Z,13.47
2019-03-09T05:05:54.096Z,13.45
2019-03-09T05:09:16.853Z,13.34
2019-03-09T05:12:22.576Z,13.60
2019-03-09T05:15:28.297Z,13.52
2019-03-09T05:18:35.155Z,13.48
2019-03-09T05:21:40.925Z,13.58
2019-03-09T05:24:46.676Z,13.18
2019-03-09T05:27:52.570Z,13.70
2019-03-09T05:30:58.329Z,13.70
2019-03-09T05:34:04.122Z,13.73
2019-03-09T05:37:10.065Z,13.65
2019-03-09T05:40:15.911Z,13.71
2019-03-09T05:43:21.727Z,13.93
2019-03-09T05:46:27.511Z,13.86
2019-03-09T05:49:33.274Z,13.52
2019-03-09T05:52:39.573Z,13.96
2019-03-09T05:55:45.315Z,13.99
2019-03-09T05:58:51.121Z,13.90
2019-03-09T06:01:57.003Z,13.93
2019-03-09T06:05:03.187Z,13.83
2019-03-09T06:08:09.701Z,14.18
2019-03-09T06:11:15.483Z,14.37
2019-03-09T06:14:21.399Z,14.41
2019-03-09T06:17:27.174Z,14.50
2019-03-09T06:20:33.038Z,15.13
2019-03-09T06:23:39.271Z,15.36
2019-03-09T06:26:45.137Z,15.40
2019-03-09T06:29:50.888Z,15.62
2019-03-09T06:33:31.992Z,15.47
2019-03-09T06:37:09.589Z,15.73
2019-03-09T06:40:15.456Z,15.82
2019-03-09T06:43:21.158Z,16.30
2019-03-09T06:46:26.967Z,16.15
2019-03-09T06:49:32.733Z,16.31
2019-03-09T06:52:38.486Z,16.53
2019-03-09T06:55:44.356Z,17.06
2019-03-09T06:58:50.153Z,17.42
2019-03-09T07:01:56.051Z,17.54
2019-03-09T07:05:01.807Z,17.77
2019-03-09T07:08:07.706Z,18.15
2019-03-09T07:11:13.850Z,18.36
2019-03-09T07:14:55.186Z,18.45
2019-03-09T07:18:09.355Z,18.74
2019-03-09T07:21:15.208Z,19.12
2019-03-09T07:24:20.977Z,19.46
2019-03-09T07:27:26.743Z,19.51
2019-03-09T07:30:32.826Z,19.85
2019-03-09T07:33:38.607Z,19.90
2019-03-09T07:36:44.359Z,20.26
2019-03-09T07:39:50.126Z,20.64
2019-03-09T07:42:56.084Z,20.81
2019-03-09T07:46:01.887Z,20.88
2019-03-09T07:49:07.750Z,20.95
2019-03-09T07:52:33.931Z,21.27
2019-03-09T07:55:40.874Z,21.68
2019-03-09T07:58:46.658Z,22.06
2019-03-09T08:01:52.424Z,22.31
2019-03-09T08:04:58.195Z,22.42
2019-03-09T08:08:04.181Z,22.76
2019-03-09T08:11:10.037Z,22.59
2019-03-09T08:14:15.846Z,22.29
2019-03-09T08:17:22.689Z,22.15
2019-03-09T08:20:28.447Z,22.09
2019-03-09T08:23:34.232Z,22.68
2019-03-09T08:26:39.947Z,22.68
2019-03-09T08:29:45.735Z,22.69
2019-03-09T08:32:51.663Z,22.95
2019-03-09T08:35:57.482Z,23.20
2019-03-09T08:39:04.084Z,23.00
2019-03-09T08:42:11.293Z,23.60
2019-03-09T08:45:18.234Z,23.58
2019-03-09T08:48:24.031Z,23.45
2019-03-09T08:51:29.814Z,23.56
2019-03-09T08:54:35.599Z,23.67
2019-03-09T08:57:41.333Z,23.69
2019-03-09T09:00:47.060Z,23.83
2019-03-09T09:03:52.885Z,24.31
2019-03-09T09:06:58.676Z,23.99
2019-03-09T09:10:04.585Z,24.46
2019-03-09T09:13:11.485Z,24.57
2019-03-09T09:16:20.702Z,24.43
2019-03-09T09:19:26.424Z,24.48
2019-03-09T09:22:38.586Z,24.59
2019-03-09T09:25:44.481Z,24.49
2019-03-09T09:28:50.209Z,24.47
2019-03-09T09:31:56.093Z,24.45
2019-03-09T09:35:01.848Z,24.92
2019-03-09T09:38:07.691Z,24.68
2019-03-09T09:41:13.831Z,24.52
2019-03-09T09:44:19.673Z,24.59
2019-03-09T09:47:25.405Z,24.93
2019-03-09T09:50:31.210Z,25.43
2019-03-09T09:53:37.082Z,25.32
2019-03-09T09:56:43.898Z,25.45
2019-03-09T09:59:49.732Z,25.45
2019-03-09T10:02:55.562Z,25.97
2019-03-09T10:06:01.461Z,26.34
2019-03-09T10:09:08.437Z,26.80
2019-03-09T10:12:14.407Z,26.80
2019-03-09T10:15:22.726Z,26.79
2019-03-09T10:18:28.560Z,26.55
2019-03-09T10:21:34.318Z,26.97
2019-03-09T10:24:42.532Z,26.68
2019-03-09T10:27:48.567Z,26.79
2019-03-09T10:30:54.520Z,26.76
2019-03-09T10:34:00.343Z,26.79
2019-03-09T10:37:06.149Z,26.77
2019-03-09T10:40:12.206Z,27.20
2019-03-09T10:43:18.245Z,27.49
2019-03-09T10:46:27.169Z,27.16
2019-03-09T10:49:33.092Z,27.24
2019-03-09T10:52:39.029Z,26.81
2019-03-09T10:55:44.978Z,26.76
2019-03-09T10:58:50.722Z,27.08
2019-03-09T11:01:56.569Z,27.24
2019-03-09T11:05:02.389Z,27.11
2019-03-09T11:08:08.197Z,27.22
2019-03-09T11:11:13.985Z,27.00
2019-03-09T11:14:19.685Z,27.18
2019-03-09T11:17:25.476Z,27.04
2019-03-09T11:20:31.218Z,26.93
2019-03-09T11:23:37.142Z,26.95
2019-03-09T11:26:42.973Z,26.93
2019-03-09T11:29:48.979Z,26.93
2019-03-09T11:32:55.068Z,26.93
2019-03-09T11:36:00.830Z,26.96
2019-03-09T11:39:09.042Z,26.93
2019-03-09T11:42:15.079Z,27.19
2019-03-09T11:45:21.328Z,27.01
2019-03-09T11:48:27.077Z,27.40
2019-03-09T11:51:32.844Z,27.22
2019-03-09T11:54:38.605Z,27.45
2019-03-09T11:57:44.491Z,27.31
2019-03-09T12:00:50.342Z,27.25
2019-03-09T12:03:56.119Z,27.09
2019-03-09T12:07:01.910Z,26.96
2019-03-09T12:10:08.339Z,26.37
2019-03-09T12:13:15.089Z,26.31
2019-03-09T12:16:21.364Z,26.72
2019-03-09T12:19:27.352Z,26.98
2019-03-09T12:22:33.209Z,27.08
2019-03-09T12:25:38.985Z,27.39
2019-03-09T12:28:44.826Z,27.23
2019-03-09T12:31:50.679Z,26.75
2019-03-09T12:34:56.464Z,26.54
2019-03-09T12:38:03.306Z,26.98
2019-03-09T12:41:09.035Z,27.39
2019-03-09T12:44:14.807Z,27.39
2019-03-09T12:47:21.190Z,27.26
2019-03-09T12:50:26.915Z,27.37
2019-03-09T12:53:32.652Z,27.59
2019-03-09T12:56:38.525Z,27.70
2019-03-09T12:59:44.219Z,27.70
2019-03-09T13:02:50.148Z,27.74
2019-03-09T13:05:55.863Z,27.97
2019-03-09T13:09:01.635Z,27.45
2019-03-09T13:12:09.010Z,26.98
2019-03-09T13:15:16.440Z,26.72
2019-03-09T13:18:22.162Z,26.63
2019-03-09T13:21:27.931Z,26.67
2019-03-09T13:24:33.662Z,27.07
2019-03-09T13:27:39.517Z,26.53
2019-03-09T13:30:45.343Z,26.86
2019-03-09T13:33:51.079Z,27.19
2019-03-09T13:36:56.891Z,27.00
2019-03-09T13:40:02.666Z,27.02
2019-03-09T13:43:09.687Z,27.36
2019-03-09T13:46:15.451Z,27.18
2019-03-09T13:49:21.182Z,26.95
2019-03-09T13:52:26.903Z,26.84
2019-03-09T13:55:32.699Z,26.45
2019-03-09T13:58:38.502Z,26.17
2019-03-09T14:01:44.283Z,25.82
2019-03-09T14:04:50.043Z,25.58
2019-03-09T14:07:55.815Z,25.60
2019-03-09T14:11:01.751Z,25.67
2019-03-09T14:14:07.710Z,25.68
2019-03-09T14:17:13.638Z,25.27
2019-03-09T14:20:19.686Z,25.46
2019-03-09T14:23:25.611Z,25.59
2019-03-09T14:26:31.572Z,25.52
2019-03-09T14:29:37.779Z,25.11
2019-03-09T14:32:44.763Z,25.62
2019-03-09T14:35:50.547Z,25.52
2019-03-09T14:38:56.265Z,25.09
2019-03-09T14:42:02.061Z,25.02
2019-03-09T14:45:11.016Z,24.83
2019-03-09T14:48:16.906Z,24.72
2019-03-09T14:51:22.950Z,24.91
2019-03-09T14:54:28.680Z,24.79
2019-03-09T14:57:34.515Z,24.81
2019-03-09T15:00:40.333Z,24.74
2019-03-09T15:03:46.119Z,24.72
2019-03-09T15:06:51.899Z,24.56
2019-03-09T15:09:57.681Z,24.45
2019-03-09T15:13:03.498Z,24.34
2019-03-09T15:16:09.267Z,24.24
2019-03-09T15:19:14.977Z,23.81
2019-03-09T15:22:20.712Z,23.82
2019-03-09T15:25:26.453Z,23.57
2019-03-09T15:28:32.220Z,23.47
2019-03-09T15:31:38.254Z,23.47
2019-03-09T15:34:44.070Z,23.31
2019-03-09T15:37:49.936Z,23.14
2019-03-09T15:40:55.790Z,23.03
2019-03-09T15:44:01.710Z,22.84
2019-03-09T15:47:07.628Z,22.93
2019-03-09T15:50:13.874Z,23.04
2019-03-09T15:53:19.766Z,23.13
2019-03-09T15:56:25.546Z,23.12
2019-03-09T15:59:31.374Z,23.18
2019-03-09T16:02:37.193Z,23.06
2019-03-09T16:05:42.929Z,23.02
2019-03-09T16:08:48.762Z,22.93
2019-03-09T16:11:54.510Z,22.88
2019-03-09T16:15:00.475Z,22.84
2019-03-09T16:18:06.494Z,22.78
2019-03-09T16:21:12.305Z,22.75
2019-03-09T16:24:18.044Z,22.51
2019-03-09T16:27:23.802Z,22.71
2019-03-09T16:30:29.709Z,22.58
2019-03-09T16:33:35.583Z,22.57
2019-03-09T16:36:41.341Z,22.59
2019-03-09T16:39:47.466Z,22.23
2019-03-09T16:42:53.428Z,22.19
2019-03-09T16:45:59.238Z,22.25
2019-03-09T16:49:05.191Z,22.00
2019-03-09T16:52:11.001Z,21.86
2019-03-09T16:55:16.946Z,21.87
2019-03-09T16:58:22.770Z,22.01
2019-03-09T17:01:28.528Z,22.04
2019-03-09T17:04:34.341Z,22.07
2019-03-09T17:07:40.154Z,21.95
2019-03-09T17:10:45.883Z,21.88
2019-03-09T17:13:51.845Z,21.95
2019-03-09T17:16:58.674Z,21.99
2019-03-09T17:20:04.543Z,21.94
2019-03-09T17:23:10.437Z,21.90
2019-03-09T17:26:17.321Z,21.79
2019-03-09T17:29:23.097Z,21.82
2019-03-09T17:32:28.924Z,21.75
2019-03-09T17:35:34.743Z,21.75
2019-03-09T17:38:40.511Z,21.66
2019-03-09T17:41:46.269Z,21.55
2019-03-09T17:44:52.051Z,21.43
2019-03-09T17:47:57.975Z,21.21
2019-03-09T17:51:03.809Z,21.05
2019-03-09T17:54:09.892Z,21.12
2019-03-09T17:57:15.866Z,20.94
2019-03-09T18:00:23.404Z,21.09
2019-03-09T18:03:29.181Z,21.32
2019-03-09T18:06:35.046Z,21.61
2019-03-09T18:09:40.856Z,21.57
2019-03-09T18:12:46.695Z,22.07
2019-03-09T18:15:52.611Z,22.46
2019-03-09T18:18:58.362Z,22.78
2019-03-09T18:22:04.131Z,23.15
2019-03-09T18:25:10.480Z,23.39
2019-03-09T18:28:16.368Z,23.26
2019-03-09T18:31:22.224Z,23.43
2019-03-09T18:34:27.999Z,22.91
2019-03-09T18:37:33.778Z,22.51
2019-03-09T18:40:39.578Z,22.33
2019-03-09T18:43:45.339Z,21.58
2019-03-09T18:46:51.144Z,21.51
2019-03-09T18:49:56.923Z,21.44
2019-03-09T18:53:02.660Z,21.32
2019-03-09T18:56:08.442Z,20.94
2019-03-09T18:59:14.187Z,21.12
2019-03-09T19:02:20.078Z,21.18
2019-03-09T19:05:25.811Z,20.80
2019-03-09T19:08:31.613Z,20.29
2019-03-09T19:11:37.523Z,20.44
2019-03-09T19:14:43.333Z,20.60
2019-03-09T19:17:49.351Z,20.26
2019-03-09T19:20:55.296Z,20.52
2019-03-09T19:24:01.036Z,20.47
2019-03-09T19:27:08.078Z,20.58
2019-03-09T19:30:15.692Z,20.56
2019-03-09T19:33:21.634Z,20.60
2019-03-09T19:36:27.441Z,20.57
2019-03-09T19:39:33.423Z,20.58
2019-03-09T19:42:39.507Z,20.18
2019-03-09T19:45:45.265Z,20.40
2019-03-09T19:48:51.099Z,20.43
2019-03-09T19:51:57.115Z,20.33
2019-03-09T19:55:03.540Z,20.33
2019-03-09T19:58:09.299Z,20.27
2019-03-09T20:01:15.068Z,20.31
2019-03-09T20:04:20.877Z,20.33
2019-03-09T20:07:29.307Z,20.23
2019-03-09T20:10:35.521Z,20.19
2019-03-09T20:13:41.302Z,20.15
2019-03-09T20:16:47.557Z,19.97
2019-03-09T20:19:53.449Z,19.92
2019-03-09T20:22:59.298Z,19.45
2019-03-09T20:26:05.261Z,19.45
2019-03-09T20:29:11.126Z,19.48
2019-03-09T20:32:17.058Z,19.34
2019-03-09T20:35:22.792Z,18.92
2019-03-09T20:38:28.758Z,18.56
2019-03-09T20:41:34.510Z,18.81
2019-03-09T20:44:40.311Z,18.81
2019-03-09T20:47:46.069Z,18.81
2019-03-09T20:50:51.865Z,18.64
2019-03-09T20:53:57.595Z,18.64
2019-03-09T20:57:03.462Z,18.64
2019-03-09T21:00:15.090Z,18.69
2019-03-09T21:03:22.782Z,18.69
2019-03-09T21:06:28.540Z,18.58
2019-03-09T21:09:34.280Z,18.29
2019-03-09T21:12:54.482Z,18.28
2019-03-09T21:16:00.280Z,18.29
2019-03-09T21:19:06.183Z,17.93
2019-03-09T21:22:11.970Z,18.16
2019-03-09T21:25:17.688Z,18.15
2019-03-09T21:28:23.602Z,18.01
2019-03-09T21:31:29.350Z,17.98
2019-03-09T21:34:35.247Z,18.06
2019-03-09T21:37:41.037Z,17.95
2019-03-09T21:40:46.925Z,17.96
2019-03-09T21:43:52.716Z,17.98
2019-03-09T21:46:58.562Z,17.98
2019-03-09T21:50:04.586Z,17.89
2019-03-09T21:53:10.384Z,18.02
2019-03-09T21:56:16.328Z,17.77
2019-03-09T21:59:22.066Z,17.86
2019-03-09T22:02:27.927Z,17.86
2019-03-09T22:05:33.665Z,17.94
2019-03-09T22:08:39.519Z,17.83
2019-03-09T22:11:45.325Z,17.84
2019-03-09T22:14:53.054Z,17.64
2019-03-09T22:17:58.588Z,17.47
2019-03-09T22:21:04.446Z,17.71
2019-03-09T22:24:10.213Z,17.74
2019-03-09T22:27:15.947Z,17.63
2019-03-09T22:30:21.908Z,17.63
2019-03-09T22:33:27.642Z,17.72
2019-03-09T22:36:33.376Z,17.96
2019-03-09T22:39:39.210Z,17.88
2019-03-09T22:42:45.209Z,17.80
2019-03-09T22:45:50.942Z,17.96
2019-03-09T22:48:56.743Z,17.82
2019-03-09T22:52:02.502Z,18.03
2019-03-09T22:55:09.264Z,17.68
2019-03-09T22:58:15.005Z,18.02
2019-03-09T23:01:21.120Z,17.93
2019-03-09T23:04:27.030Z,17.62
2019-03-09T23:07:32.825Z,17.62
2019-03-09T23:10:38.597Z,17.91
2019-03-09T23:13:44.367Z,17.91
2019-03-09T23:16:50.097Z,17.75
2019-03-09T23:19:55.882Z,17.56
2019-03-09T23:23:01.594Z,17.76
2019-03-09T23:26:07.368Z,17.70
2019-03-09T23:29:13.210Z,17.74
2019-03-09T23:32:19.004Z,17.88
2019-03-09T23:35:24.855Z,17.84
2019-03-09T23:38:30.591Z,17.97
2019-03-09T23:41:36.681Z,17.87
2019-03-09T23:44:42.676Z,18.05
2019-03-09T23:47:48.838Z,17.94
2019-03-09T23:50:54.868Z,18.06
2019-03-09T23:54:00.661Z,17.58
2019-03-09T23:57:06.632Z,17.89
